Latest Weather Observations for Kuitpo

IDS60801

Issued at 3:41 am CST Sunday 21 July 2019 (issued every 10 minutes, with the page automatically refreshed every 10 minutes)

About weather observations | Map of weather stations | Latest weather observations for SA | Other Formats
Station Details ID: 023887 Name: KUITPO FOREST RESERVE Lat: -35.17 Lon: 138.68 Height: 365.0 m
Data from the previous 72 hours. | See also: Recent months at Kuitpo
Date/Time
CST
Temp
°C
App
Temp
°C
Dew
Point
°C
Rel
Hum
%
Delta-T
°C
Wind Press
QNH
hPa
Press
MSL
hPa
Rain since
9am
mm
Dir  Spd
km/h
Gust
km/h
Spd
kts
Gust
kts
21/03:30am 8.8 5.5 8.2 96 0.3 W 15 22 8 12 1009.3 1009.6 0.4
21/03:00am 9.6 5.5 7.9 89 0.8 W 19 32 10 17 1009.0 1009.2 0.2
21/02:30am 10.2 5.6 8.0 86 1.1 W 22 33 12 18 1008.8 1009.0 0.0
21/02:00am 10.6 5.7 8.4 86 1.1 W 24 35 13 19 1008.6 1008.8 0.0
21/01:30am 11.0 5.8 8.9 87 1.1 W 26 41 14 22 1008.0 1008.2 0.0
21/01:00am 11.4 5.9 9.3 87 1.1 WNW 28 48 15 26 1007.7 1007.9 0.0
21/12:30am 11.7 5.4 9.6 87 1.1 WNW 33 57 18 31 1007.2 1007.5 0.0
21/12:00am 11.9 6.3 10.1 89 0.9 WNW 30 50 16 27 1007.1 1007.4 0.0
 
Date/Time
CST
Temp
°C
App
Temp
°C
Dew
Point
°C
Rel
Hum
%
Delta-T
°C
Wind Press
QNH
hPa
Press
MSL
hPa
Rain since
9am
mm
Dir  Spd
km/h
Gust
km/h
Spd
kts
Gust
kts
20/11:30pm 12.3 6.2 9.9 85 1.3 WNW 32 54 17 29 1006.8 1007.0 0.0
20/11:09pm 12.7 7.4 9.7 82 1.6 WNW 28 46 15 25 1006.8 1007.0 0.0
20/11:00pm 12.6 7.6 9.6 82 1.6 WNW 26 41 14 22 1006.5 1006.7 0.0
20/10:45pm 12.5 7.0 9.1 80 1.7 WNW 28 46 15 25 1006.4 1006.6 0.0
20/10:30pm 12.5 7.4 7.8 73 2.4 NW 24 39 13 21 1006.3 1006.5 0.0
20/10:00pm 13.2 5.8 4.1 54 4.2 NW 32 52 17 28 1006.3 1006.5 0.0
20/09:30pm 14.2 5.3 0.5 39 6.0 NNW 37 67 20 36 1005.7 1005.9 0.0
20/09:00pm 14.7 5.8 0.5 38 6.2 NNW 37 59 20 32 1004.7 1004.9 0.0
20/08:30pm 14.8 6.8 0.3 37 6.3 NNW 32 61 17 33 1004.1 1004.3 0.0
20/08:00pm 14.9 6.8 0.0 36 6.4 N 32 61 17 33 1004.0 1004.2 0.0
20/07:30pm 14.9 7.7 0.7 38 6.2 N 28 50 15 27 1003.7 1003.9 0.0
20/07:00pm 14.8 7.7 1.3 40 6.0 N 28 56 15 30 1003.9 1004.1 0.0
20/06:30pm 14.8 7.8 2.0 42 5.8 N 28 48 15 26 1004.0 1004.2 0.0
20/06:00pm 15.0 8.1 2.5 43 5.7 N 28 56 15 30 1003.9 1004.1 0.0
20/05:45pm 15.0 8.1 2.5 43 5.7 N 28 54 15 29 1003.9 1004.1 0.0
20/05:30pm 14.9 9.0 3.7 47 5.2 N 24 48 13 26 1004.1 1004.3 0.0
20/05:05pm 15.4 8.7 3.5 45 5.5 N 28 54 15 29 1004.0 1004.2 0.0
20/05:00pm 15.6 9.2 3.4 44 5.7 N 26 61 14 33 1004.3 1004.5 0.0
20/04:52pm 15.7 8.8 2.8 42 5.9 N 28 61 15 33 1004.4 1004.6 0.0
20/04:30pm 15.9 10.3 3.7 44 5.8 N 22 37 12 20 1004.9 1005.1 0.0
20/04:00pm 16.4 10.8 3.5 42 6.1 N 22 56 12 30 1005.2 1005.4 0.0
20/03:30pm 16.9 11.5 4.6 44 6.0 N 22 46 12 25 1005.6 1005.8 0.0
20/03:10pm 16.8 10.1 3.5 41 6.3 N 28 57 15 31 1005.9 1006.1 0.0
20/03:00pm 17.0 11.1 4.0 42 6.2 N 24 43 13 23 1006.0 1006.2 0.0
20/02:30pm 17.0 10.6 3.3 40 6.5 N 26 48 14 26 1006.3 1006.5 0.0
20/02:00pm 17.2 12.1 4.2 42 6.2 N 20 39 11 21 1006.8 1007.0 0.0
20/01:30pm 16.8 11.3 4.2 43 6.0 N 22 50 12 27 1007.7 1007.9 0.0
20/01:00pm 16.6 10.7 3.7 42 6.1 NNW 24 39 13 21 1008.4 1008.6 0.0
20/12:30pm 16.3 10.4 4.0 44 5.8 N 24 46 13 25 1008.9 1009.1 0.0
20/12:01pm 16.0 9.3 3.8 44 5.7 N 28 50 15 27 1009.5 1009.8 0.0
20/12:00pm 16.0 9.7 3.8 44 5.8 N 26 50 14 27 1009.6 1009.9 0.0
20/11:53am 15.9 9.1 3.0 42 6.0 N 28 46 15 25 1009.8 1010.1 0.0
20/11:30am 16.0 10.8 3.8 44 5.8 N 20 39 11 21 1010.2 1010.5 0.0
20/11:00am 15.2 8.6 2.1 41 5.9 NNW 26 43 14 23 1010.9 1011.1 0.0
20/10:35am 15.1 8.1 2.0 41 5.9 N 28 57 15 31 1011.4 1011.6 0.0
20/10:30am 15.0 8.1 2.5 43 5.7 N 28 44 15 24 1011.5 1011.8 0.0
20/10:00am 14.3 7.8 2.5 45 5.3 N 26 46 14 25 1011.9 1012.2 0.0
20/09:30am 13.7 7.1 2.0 45 5.2 NNW 26 48 14 26 1012.2 1012.5 0.0
20/09:00am 13.3 7.4 1.9 46 5.0 NNW 22 43 12 23 1012.3 1012.6 0.0
20/08:30am 12.7 7.2 2.0 48 4.7 N 20 48 11 26 1012.5 1012.8 0.0
20/08:00am 12.1 5.7 1.1 47 4.7 NNW 24 52 13 28 1012.5 1012.8 0.0
20/07:30am 11.8 5.5 1.7 50 4.4 NNW 24 48 13 26 1012.5 1012.8 0.0
20/07:00am 11.6 5.3 1.8 51 4.3 NNW 24 37 13 20 1012.7 1013.0 0.0
20/06:30am 11.5 5.6 1.7 51 4.3 NNW 22 44 12 24 1012.7 1013.0 0.0
20/06:00am 11.8 5.9 2.0 51 4.3 NNW 22 39 12 21 1012.8 1013.1 0.0
20/05:30am 12.2 6.3 1.8 49 4.5 NNW 22 37 12 20 1012.8 1013.1 0.0
20/05:00am 12.6 6.0 1.9 48 4.7 NNW 26 46 14 25 1012.9 1013.2 0.0
20/04:30am 12.5 6.7 2.4 50 4.5 NNW 22 41 12 22 1013.0 1013.3 0.0
20/04:00am 12.4 7.0 2.6 51 4.4 NNW 20 46 11 25 1013.2 1013.5 0.0
20/03:30am 12.5 7.4 2.9 52 4.3 NNW 19 35 10 19 1013.7 1013.9 0.0
20/03:00am 12.1 7.0 2.8 53 4.2 NNW 19 32 10 17 1013.9 1014.2 0.0
20/02:30am 11.5 7.1 2.5 54 4.0 N 15 28 8 15 1014.1 1014.4 0.0
20/02:00am 11.6 6.8 2.6 54 4.0 N 17 28 9 15 1014.5 1014.8 0.0
20/01:30am 11.3 6.9 2.6 55 3.8 N 15 26 8 14 1014.7 1015.0 0.0
20/01:00am 11.3 6.4 2.3 54 3.9 N 17 26 9 14 1015.0 1015.3 0.0
20/12:30am 10.8 6.3 2.1 55 3.8 NNW 15 26 8 14 1015.4 1015.7 0.0
20/12:00am 10.7 6.2 2.0 55 3.8 NNW 15 26 8 14 1015.6 1015.9 0.0
 
Date/Time
CST
Temp
°C
App
Temp
°C
Dew
Point
°C
Rel
Hum
%
Delta-T
°C
Wind Press
QNH
hPa
Press
MSL
hPa
Rain since
9am
mm
Dir  Spd
km/h
Gust
km/h
Spd
kts
Gust
kts
19/11:30pm 10.3 6.3 2.7 59 3.3 N 13 20 7 11 1015.9 1016.2 0.0
19/11:00pm 10.1 6.2 3.2 62 3.1 N 13 19 7 10 1016.2 1016.5 0.0
19/10:30pm 10.3 6.7 3.1 61 3.2 N 11 24 6 13 1016.4 1016.7 0.0
19/10:00pm 9.6 6.0 3.1 64 2.9 N 11 17 6 9 1016.7 1017.0 0.0
19/09:30pm 9.7 6.3 3.9 67 2.6 NNE 11 17 6 9 1016.8 1017.1 0.0
19/09:00pm 9.2 5.9 4.4 72 2.2 NNE 11 19 6 10 1016.9 1017.2 0.0
19/08:30pm 9.0 5.7 4.6 74 2.0 NNE 11 15 6 8 1017.2 1017.5 0.0
19/08:00pm 9.3 6.8 4.5 72 2.2 NNE 7 13 4 7 1017.2 1017.5 0.0
19/07:30pm 11.1 7.5 4.8 65 2.9 N 13 24 7 13 1017.1 1017.4 0.0
19/07:00pm 10.8 7.7 5.6 70 2.4 N 11 19 6 10 1017.1 1017.4 0.0
19/06:30pm 11.1 8.1 5.8 70 2.5 N 11 20 6 11 1016.9 1017.2 0.0
19/06:00pm 10.9 7.9 6.1 72 2.3 N 11 19 6 10 1017.0 1017.3 0.0
19/05:30pm 11.4 8.8 6.1 70 2.5 N 9 17 5 9 1017.0 1017.3 0.0
19/05:00pm 12.7 9.3 5.8 63 3.3 NNW 13 20 7 11 1017.0 1017.3 0.0
19/04:30pm 13.8 9.5 5.4 57 4.0 NNW 17 24 9 13 1017.0 1017.3 0.0
19/04:00pm 14.4 10.5 5.5 55 4.3 NNW 15 24 8 13 1017.0 1017.3 0.0
19/03:30pm 14.7 10.4 5.2 53 4.6 NW 17 26 9 14 1017.1 1017.4 0.0
19/03:00pm 15.2 11.5 6.5 56 4.3 NNW 15 24 8 13 1017.3 1017.6 0.0
19/02:30pm 15.0 11.6 6.0 55 4.4 NNW 13 24 7 13 1017.4 1017.7 0.0
19/02:00pm 14.9 11.1 6.0 55 4.4 NNW 15 30 8 16 1017.5 1017.8 0.0
19/01:30pm 14.4 9.7 5.2 54 4.4 NNW 19 28 10 15 1017.9 1018.2 0.0
19/01:00pm 14.5 10.1 5.0 53 4.5 NNW 17 26 9 14 1018.2 1018.5 0.0
19/12:30pm 14.1 9.6 4.4 52 4.6 NNW 17 28 9 15 1018.5 1018.9 0.0
19/12:00pm 13.7 9.8 7.0 64 3.3 NNW 17 26 9 14 1018.9 1019.3 0.0
19/11:30am 13.4 9.9 7.4 67 3.0 N 15 22 8 12 1019.7 1020.0 0.0
19/11:00am 12.5 9.2 8.0 74 2.3 N 15 24 8 13 1020.1 1020.4 0.0
19/10:30am 12.1 9.3 8.4 78 1.9 N 13 24 7 13 1020.1 1020.4 0.0
19/10:00am 11.0 7.8 8.6 85 1.2 N 15 22 8 12 1020.2 1020.5 0.0
19/09:30am 10.2 7.3 8.1 87 1.0 N 13 20 7 11 1020.1 1020.4 0.0
19/09:00am 10.3 7.6 9.1 92 0.6 N 13 20 7 11 1019.9 1020.2 0.2
19/08:30am 9.7 7.2 9.7 100 0.0 N 13 19 7 10 1019.6 1019.9 0.2
19/08:00am 8.9 6.6 8.9 100 0.0 N 11 15 6 8 1019.3 1019.6 0.2
19/07:30am 8.7 6.3 8.7 100 0.0 N 11 15 6 8 1019.2 1019.5 0.2
19/07:00am 8.8 6.8 8.8 100 0.0 N 9 11 5 6 1019.1 1019.4 0.2
19/06:30am 9.1 7.2 9.1 100 0.0 N 9 13 5 7 1018.9 1019.3 0.2
19/06:00am 9.1 7.2 9.0 99 0.0 N 9 13 5 7 1018.6 1019.0 0.2
19/05:30am 9.1 7.2 9.0 99 0.0 NNW 9 17 5 9 1018.6 1019.0 0.2
19/05:00am 9.1 7.2 9.0 99 0.1 NW 9 17 5 9 1018.5 1018.9 0.2
19/04:30am 9.1 6.7 8.8 98 0.1 NW 11 17 6 9 1018.3 1018.6 0.2
19/04:00am 9.0 7.4 8.7 98 0.1 WNW 7 13 4 7 1018.1 1018.4 0.2
19/03:30am 9.0 6.6 8.7 98 0.1 NW 11 19 6 10 1018.3 1018.6 0.2
19/03:00am 8.8 6.7 8.4 97 0.2 WNW 9 17 5 9 1018.5 1018.9 0.2
19/02:30am 8.7 6.6 8.3 97 0.2 WNW 9 15 5 8 1018.7 1019.1 0.2
19/02:00am 8.7 6.2 8.1 96 0.3 WNW 11 19 6 10 1018.6 1019.0 0.2
19/01:30am 8.8 5.9 8.2 96 0.3 NW 13 24 7 13 1018.5 1018.9 0.2
19/01:00am 8.8 5.5 8.0 95 0.4 NW 15 20 8 11 1018.5 1018.9 0.2
19/12:30am 9.2 5.2 8.3 94 0.4 NW 19 30 10 16 1018.5 1018.9 0.2
19/12:00am 9.2 5.6 8.3 94 0.4 NW 17 24 9 13 1018.5 1018.9 0.2
 
Date/Time
CST
Temp
°C
App
Temp
°C
Dew
Point
°C
Rel
Hum
%
Delta-T
°C
Wind Press
QNH
hPa
Press
MSL
hPa
Rain since
9am
mm
Dir  Spd
km/h
Gust
km/h
Spd
kts
Gust
kts
18/11:30pm 9.2 5.5 8.1 93 0.5 NW 17 26 9 14 1018.6 1019.0 0.2
18/11:00pm 9.2 5.5 8.1 93 0.5 NW 17 26 9 14 1018.4 1018.8 0.2
18/10:30pm 8.9 6.0 8.0 94 0.4 NNW 13 24 7 13 1018.5 1018.9 0.2
18/10:00pm 9.2 5.5 8.1 93 0.5 NW 17 30 9 16 1018.4 1018.8 0.2
18/09:30pm 9.0 5.7 8.2 95 0.4 NW 15 26 8 14 1018.3 1018.6 0.2
18/09:00pm 8.9 5.2 8.1 95 0.4 NW 17 28 9 15 1018.1 1018.4 0.2
18/08:30pm 9.1 5.1 8.2 94 0.4 NW 19 26 10 14 1018.0 1018.3 0.2
18/08:00pm 9.2 5.0 8.3 94 0.4 NW 20 32 11 17 1018.0 1018.3 0.2
18/07:30pm 9.0 4.8 8.2 95 0.4 NW 20 30 11 16 1017.9 1018.2 0.2
18/07:00pm 9.0 4.8 8.1 94 0.4 WNW 20 28 11 15 1017.7 1018.0 0.2
18/06:30pm 9.0 5.3 8.1 94 0.4 NW 17 28 9 15 1017.4 1017.7 0.2
18/06:00pm 9.1 4.8 8.0 93 0.5 WNW 20 32 11 17 1017.1 1017.4 0.2
18/05:30pm 9.3 4.7 8.2 93 0.5 WNW 22 33 12 18 1017.2 1017.5 0.2
18/05:00pm 9.5 5.6 8.6 94 0.4 WNW 19 33 10 18 1017.1 1017.4 0.2
18/04:30pm 9.9 5.3 8.3 90 0.8 WNW 22 35 12 19 1017.0 1017.3 0.2
18/04:00pm 10.1 5.6 8.4 89 0.8 WNW 22 35 12 19 1017.0 1017.3 0.2
18/03:30pm 10.2 6.0 8.3 88 0.9 NW 20 39 11 21 1016.8 1017.1 0.2
18/03:00pm 10.3 5.3 8.2 87 1.0 NW 24 39 13 21 1016.7 1017.0 0.2
18/02:35pm 10.2 4.4 8.0 86 1.1 WNW 28 48 15 26 1016.4 1016.7 0.2
18/02:30pm 10.4 5.4 8.0 85 1.2 WNW 24 48 13 26 1016.5 1016.8 0.2
18/02:00pm 10.0 4.9 7.6 85 1.2 NW 24 43 13 23 1016.5 1016.8 0.2
18/01:30pm 9.9 4.0 7.5 85 1.2 NW 28 44 15 24 1016.7 1017.0 0.2
18/01:00pm 9.7 3.3 7.0 83 1.3 WNW 30 48 16 26 1017.0 1017.3 0.2
18/12:49pm 9.7 3.9 8.1 90 0.8 WNW 28 46 15 25 1017.2 1017.5 0.2
18/12:30pm 9.6 4.7 8.4 92 0.6 NW 24 37 13 20 1017.3 1017.6 0.0
18/12:00pm 9.3 3.7 8.8 97 0.2 NW 28 46 15 25 1017.8 1018.1 0.0
18/11:57am 9.2 3.6 8.9 98 0.1 NW 28 46 15 25 1017.8 1018.1 0.0
18/11:30am 8.9 3.7 8.9 100 0.0 NW 26 39 14 21 1018.5 1018.9 0.0
18/11:00am 9.1 4.4 9.1 100 0.0 NW 24 41 13 22 1018.7 1019.1 0.0
18/10:30am 8.9 4.5 8.9 100 0.0 NW 22 41 12 22 1018.9 1019.3 0.0
18/10:00am 9.0 5.0 9.0 100 0.0 NW 20 30 11 16 1019.3 1019.6 0.0
18/09:30am 9.1 5.1 9.1 100 0.0 NW 20 28 11 15 1019.3 1019.6 0.0
18/09:00am 9.0 5.0 9.0 100 0.0 NW 20 33 11 18 1019.3 1019.6 6.0
18/08:30am 9.1 5.1 9.1 100 0.0 NW 20 39 11 21 1019.5 1019.8 6.0
18/08:00am 9.2 5.8 9.2 100 0.0 NW 17 30 9 16 1018.9 1019.3 6.0
18/07:30am 9.3 6.3 9.3 100 0.0 NW 15 28 8 15 1018.9 1019.3 6.0
18/07:00am 9.3 5.9 9.3 100 0.0 NW 17 26 9 14 1018.7 1019.1 6.0
18/06:30am 9.3 6.3 9.3 100 0.0 NW 15 28 8 15 1018.3 1018.6 5.8
18/06:00am 9.3 6.3 9.3 100 0.0 NW 15 24 8 13 1018.1 1018.4 5.8
18/05:30am 9.4 6.1 9.4 100 0.0 NW 17 26 9 14 1018.0 1018.3 5.8
18/05:00am 9.6 5.9 9.6 100 0.0 WNW 19 33 10 18 1018.1 1018.4 5.8
18/04:30am 9.8 6.2 9.8 100 0.0 WNW 19 30 10 16 1018.4 1018.8 5.8
18/04:00am 9.9 6.7 9.9 100 0.0 WNW 17 24 9 13 1018.4 1018.8 5.8

Other formats

Comma delimited format used in spreadsheet applications
http://www.bom.gov.au/fwo/IDS60801/IDS60801.94683.axf

JavaScript Object Notation format (JSON) in row-major order
http://www.bom.gov.au/fwo/IDS60801/IDS60801.94683.json

Data quality

Most of these data are generated automatically and are frequently updated. Quality checks on data are not normally performed. It is possible for incorrect values to appear. Refer to information at About Latest Weather Observations and please check the disclaimer before using these data.